SULS

Details ICAO SULS (PDP)
Name CAPITAN CORBETA C A CURBELO INTL
Region Uruguay
Timezone America/Montevideo (UTC-3.0)
Plans Departing 21
Arriving 38
Stats Elevation 95 ft / 29 m (AMSL)
Location -34.857160° -55.097687°
Runways 2
Magnetic Variation 11.552° W
Sunrise 2017-12-11 08:21:40 UTC / 2017-12-11 05:21:40 Local
Sunset 2017-12-11 22:48:40 UTC / 2017-12-11 19:48:40 Local
Advertisement - Login to hide

Runways

ID Width Length Bearing (true) Bearing (mag) Surface Threshold Offset Overrun Length
01 125 ft / 38 m 5,263 ft / 1,604 m 357.91° 9.46° Asphalt 0 ft / 0 m 0 ft / 0 m
08 148 ft / 45 m 6,991 ft / 2,131 m 72.39° 83.94° Asphalt 0 ft / 0 m 0 ft / 0 m
19 125 ft / 38 m 5,263 ft / 1,604 m 177.91° 189.46° Asphalt 0 ft / 0 m 0 ft / 0 m
26 148 ft / 45 m 6,991 ft / 2,131 m 252.37° 263.92° Asphalt 0 ft / 0 m 0 ft / 0 m

Map

Weather


0- 5 10 15 20 25 30 35+ Temperature / ° C

Clouds and Precipitation
Forecast for 2017-12-11 06:00 UTC. Updated 44 minutes ago

Ground ~20,000 ft ~40,000 ft Winds

METAR

SULS 110600Z 18013KT 9999 SCT023 16/12 Q1011

TAF

TAF SULS 102330Z 1100/1124 18018G28KT CAVOK TX23/1118Z TN14/1109Z BECMG 1112/1114 12015KT

Frequencies

Tower 122.10 MHz A/G
Tower 118.30 MHz TWR
Warning: Do not use this data for real-world aviation or navigation. No guarantee of current accuracy is given.